Thalassa — FNFP — position and weather

sailwx.info

Track history (hours):
 
Tides and Currents Weather Stations Pressure Air Temp Water Temp Dewpoint Dewpoint Depression Visibility Wind Speed Wind Dir Waves Ship Positions

Oceanographic research ship Thalassa (France & Spain)

Detailed information on ship capabilities available from University of Delaware's Ocean Information Center.

Last reported at 2020-Jan-28 18:00 UTC. Time now 2020-Jan-28 19:11 UTC.
Position N 51°24' E 001°50'.

Length 74 m; beam 15 m.

Type: Other ship. MMSI: 227297000.

Date/timePositionNaut miles runAvg speedWind from/ knotsBaromVisibWave heightAir tempDewpointWater temp
2020-Jan-28 18:00N 51°24' E 001°50'15 3.8
2020-Jan-28 14:00N 51°38' E 001°58'4 8.2
2020-Jan-28 13:30N 51°40' E 002°04'11 4.3
2020-Jan-28 11:00N 51°39' E 002°21'29 4.5
2020-Jan-28 04:30N 51°35' E 003°09'35 5.1
2020-Jan-27 21:40N 52°01' E 002°30'28 7.8
2020-Jan-27 18:00N 51°49' E 001°49'2 1.7
2020-Jan-27 17:00N 51°50' E 001°47'0 0.7
2020-Jan-27 16:30N 51°50' E 001°46'4 4.3
2020-Jan-27 15:30N 51°54' E 001°46'11 3.7
2020-Jan-27 12:30N 52°03' E 001°55'510.5
2020-Jan-27 12:00N 52°07' E 002°00'611.1
2020-Jan-27 11:30N 52°12' E 002°06'8 1.5
2020-Jan-27 06:00N 52°15' E 001°53'8 3.8
2020-Jan-27 04:00N 52°08' E 001°53'13 5.2
2020-Jan-27 01:30N 52°15' E 002°11'23 7.5
2020-Jan-26 22:31N 52°37' E 002°14'3 5.0
2020-Jan-26 22:01N 52°39' E 002°16'5 9.6
2020-Jan-26 21:30N 52°43' E 002°22'7 4.5
2020-Jan-26 20:01N 52°50' E 002°21'10 6.4
2020-Jan-26 18:31N 52°56' E 002°08'611.2
2020-Jan-26 18:01N 52°55' E 001°59'4 1.7
2020-Jan-26 15:31N 52°56' E 001°52'1 0.8
2020-Jan-26 14:31N 52°56' E 001°51'3 6.1
2020-Jan-26 14:01N 52°59' E 001°48'10 5.0
2020-Jan-26 12:01N 53°09' E 001°47'4 8.4
2020-Jan-26 11:31N 53°13' E 001°44'510.7
2020-Jan-26 11:01N 53°18' E 001°40'9 8.6
2020-Jan-26 09:57N 53°26' E 001°34'1 2.9
2020-Jan-26 09:30N 53°27' E 001°34'26 3.3
2020-Jan-26 01:30N 53°13' E 002°12'3 5.8
2020-Jan-26 00:59N 53°10' E 002°09'16 6.4
2020-Jan-25 22:31N 53°14' E 001°43'21 5.3
2020-Jan-25 18:31N 53°13' E 001°08'611.4
2020-Jan-25 18:01N 53°12' E 000°59'1 2.5
2020-Jan-25 17:30N 53°13' E 000°57'7 4.6
2020-Jan-25 16:00N 53°20' E 000°59'15 6.2
2020-Jan-25 13:30N 53°31' E 000°41'9 9.1
2020-Jan-25 12:30N 53°39' E 000°47'5 9.5
2020-Jan-25 12:00N 53°44' E 000°49'5 9.3
2020-Jan-25 11:31N 53°48' E 000°50'18 5.2
2020-Jan-25 08:00N 53°57' E 001°17'2 3.5
2020-Jan-25 07:30N 53°55' E 001°18'20 4.9
2020-Jan-25 03:18N 53°43' E 000°50'12 5.1
2020-Jan-25 00:59N 53°45' E 000°30'2 4.3
2020-Jan-25 00:30N 53°46' E 000°28'14 9.3
2020-Jan-24 23:00N 53°59' E 000°18'14 5.8
2020-Jan-24 20:30N 54°13' E 000°14'6 0.6
2020-Jan-24 10:22N 54°19' E 000°17'411.6
2020-Jan-24 10:01N 54°15' E 000°17'20 8.0
2020-Jan-24 07:30N 53°55' E 000°15'0 1.0
2020-Jan-24 07:01N 53°55' E 000°16'9 2.6
2020-Jan-24 03:30N 53°54' E 000°31'7 6.7
2020-Jan-24 02:30N 53°54' E 000°43'15 7.6
2020-Jan-24 00:30N 53°54' E 001°08'42 5.3
2020-Jan-23 16:30N 54°33' E 000°40'4 3.4
2020-Jan-23 15:20N 54°37' E 000°40'14 9.3
2020-Jan-23 13:49N 54°23' E 000°39'3 2.3
2020-Jan-23 12:27N 54°22' E 000°44'13 9.0
2020-Jan-23 10:58N 54°26' E 001°05'4 2.8
2020-Jan-23 09:32N 54°24' E 001°11'14 3.9
2020-Jan-23 05:55N 54°11' E 001°22'2 3.8
2020-Jan-23 05:21N 54°13' E 001°23'52 4.9
2020-Jan-22 18:47N 53°24' E 001°51'36 1.6
2020-Jan-21 20:31N 53°17' E 002°50'28 3.7
2020-Jan-21 12:58N 52°50' E 002°39'13 9.0
2020-Jan-21 11:30N 52°38' E 002°31'2 2.1
2020-Jan-21 10:31N 52°36' E 002°28'17 5.5
2020-Jan-21 07:31N 52°21' E 002°40'0 0.9
2020-Jan-21 07:01N 52°22' E 002°40'4 1.3
2020-Jan-21 04:01N 52°25' E 002°42'2 4.6
2020-Jan-21 03:30N 52°25' E 002°46'2 3.2
2020-Jan-21 03:00N 52°25' E 002°48'11 7.2
2020-Jan-21 01:29N 52°33' E 003°01'5 9.2
2020-Jan-21 00:59N 52°36' E 003°06'29 7.4
2020-Jan-20 21:00N 52°13' E 003°35'18 7.3
2020-Jan-20 18:31N 52°08' E 004°04'8 5.0
2020-Jan-20 16:59N 52°06' E 004°16'0 0.0
2020-Jan-20 14:56N 52°06' E 004°16'0 0.0
2020-Jan-20 13:29N 52°06' E 004°16'0 0.0
2020-Jan-20 11:56N 52°06' E 004°16'0 0.0
2020-Jan-20 10:59N 52°06' E 004°16'0 0.0
2020-Jan-20 09:29N 52°06' E 004°16'0 0.0
2020-Jan-20 08:59N 52°06' E 004°16'0 0.0
2020-Jan-20 06:59N 52°06' E 004°16'0 0.0
2020-Jan-20 05:59N 52°06' E 004°16'0 0.0
2020-Jan-20 05:29N 52°06' E 004°16'0 0.0
2020-Jan-20 04:59N 52°06' E 004°16'0 0.0
2020-Jan-20 03:29N 52°06' E 004°16'0 0.0
2020-Jan-20 02:29N 52°06' E 004°16'0 0.0
2020-Jan-20 01:29N 52°06' E 004°16'0 0.0
2020-Jan-20 00:59N 52°06' E 004°16'0 0.0
2020-Jan-19 23:29N 52°06' E 004°16'0 0.0
2020-Jan-19 20:56N 52°06' E 004°16'0 0.0
2020-Jan-19 18:56N 52°06' E 004°16'0 0.0
2020-Jan-19 18:29N 52°06' E 004°16'0 0.0
2020-Jan-19 16:26N 52°06' E 004°16'8 2.4
2020-Jan-19 13:00N 52°14' E 004°19'8 3.9
2020-Jan-19 11:00N 52°21' E 004°24'5 9.9
2020-Jan-19 10:30N 52°24' E 004°17'5 9.5
2020-Jan-19 10:00N 52°28' E 004°12'14 9.2
2020-Jan-19 08:31N 52°40' E 004°03'3 1.4
2020-Jan-19 06:30N 52°43' E 004°01'5 2.5
2020-Jan-19 04:30N 52°40' E 004°08'3 2.5
2020-Jan-19 03:30N 52°39' E 004°12'  
Track history (hours):
 
Tides and Currents Weather Stations Pressure Air Temp Water Temp Dewpoint Dewpoint Depression Visibility Wind Speed Wind Dir Waves Ship Positions

Oceanographic research ship Thalassa (France & Spain)

Detailed information on ship capabilities available from University of Delaware's Ocean Information Center.

Last reported at 2020-Jan-28 18:00 UTC. Time now 2020-Jan-28 19:11 UTC.
Position N 51°24' E 001°50'.

Length 74 m; beam 15 m.

Type: Other ship. MMSI: 227297000.

Date/timePositionNaut miles runAvg speedWind from/ knotsBaromVisibWave heightAir tempDewpointWater temp
2020-Jan-28 18:00N 51°24' E 001°50'15 3.8
2020-Jan-28 14:00N 51°38' E 001°58'4 8.2
2020-Jan-28 13:30N 51°40' E 002°04'11 4.3
2020-Jan-28 11:00N 51°39' E 002°21'29 4.5
2020-Jan-28 04:30N 51°35' E 003°09'35 5.1
2020-Jan-27 21:40N 52°01' E 002°30'28 7.8
2020-Jan-27 18:00N 51°49' E 001°49'2 1.7
2020-Jan-27 17:00N 51°50' E 001°47'0 0.7
2020-Jan-27 16:30N 51°50' E 001°46'4 4.3
2020-Jan-27 15:30N 51°54' E 001°46'11 3.7
2020-Jan-27 12:30N 52°03' E 001°55'510.5
2020-Jan-27 12:00N 52°07' E 002°00'611.1
2020-Jan-27 11:30N 52°12' E 002°06'8 1.5
2020-Jan-27 06:00N 52°15' E 001°53'8 3.8
2020-Jan-27 04:00N 52°08' E 001°53'13 5.2
2020-Jan-27 01:30N 52°15' E 002°11'23 7.5
2020-Jan-26 22:31N 52°37' E 002°14'3 5.0
2020-Jan-26 22:01N 52°39' E 002°16'5 9.6
2020-Jan-26 21:30N 52°43' E 002°22'7 4.5
2020-Jan-26 20:01N 52°50' E 002°21'10 6.4
2020-Jan-26 18:31N 52°56' E 002°08'611.2
2020-Jan-26 18:01N 52°55' E 001°59'4 1.7
2020-Jan-26 15:31N 52°56' E 001°52'1 0.8
2020-Jan-26 14:31N 52°56' E 001°51'3 6.1
2020-Jan-26 14:01N 52°59' E 001°48'10 5.0
2020-Jan-26 12:01N 53°09' E 001°47'4 8.4
2020-Jan-26 11:31N 53°13' E 001°44'510.7
2020-Jan-26 11:01N 53°18' E 001°40'9 8.6
2020-Jan-26 09:57N 53°26' E 001°34'1 2.9
2020-Jan-26 09:30N 53°27' E 001°34'26 3.3
2020-Jan-26 01:30N 53°13' E 002°12'3 5.8
2020-Jan-26 00:59N 53°10' E 002°09'16 6.4
2020-Jan-25 22:31N 53°14' E 001°43'21 5.3
2020-Jan-25 18:31N 53°13' E 001°08'611.4
2020-Jan-25 18:01N 53°12' E 000°59'1 2.5
2020-Jan-25 17:30N 53°13' E 000°57'7 4.6
2020-Jan-25 16:00N 53°20' E 000°59'15 6.2
2020-Jan-25 13:30N 53°31' E 000°41'9 9.1
2020-Jan-25 12:30N 53°39' E 000°47'5 9.5
2020-Jan-25 12:00N 53°44' E 000°49'5 9.3
2020-Jan-25 11:31N 53°48' E 000°50'18 5.2
2020-Jan-25 08:00N 53°57' E 001°17'2 3.5
2020-Jan-25 07:30N 53°55' E 001°18'20 4.9
2020-Jan-25 03:18N 53°43' E 000°50'12 5.1
2020-Jan-25 00:59N 53°45' E 000°30'2 4.3
2020-Jan-25 00:30N 53°46' E 000°28'14 9.3
2020-Jan-24 23:00N 53°59' E 000°18'14 5.8
2020-Jan-24 20:30N 54°13' E 000°14'6 0.6
2020-Jan-24 10:22N 54°19' E 000°17'411.6
2020-Jan-24 10:01N 54°15' E 000°17'20 8.0
2020-Jan-24 07:30N 53°55' E 000°15'0 1.0
2020-Jan-24 07:01N 53°55' E 000°16'9 2.6
2020-Jan-24 03:30N 53°54' E 000°31'7 6.7
2020-Jan-24 02:30N 53°54' E 000°43'15 7.6
2020-Jan-24 00:30N 53°54' E 001°08'42 5.3
2020-Jan-23 16:30N 54°33' E 000°40'4 3.4
2020-Jan-23 15:20N 54°37' E 000°40'14 9.3
2020-Jan-23 13:49N 54°23' E 000°39'3 2.3
2020-Jan-23 12:27N 54°22' E 000°44'13 9.0
2020-Jan-23 10:58N 54°26' E 001°05'4 2.8
2020-Jan-23 09:32N 54°24' E 001°11'14 3.9
2020-Jan-23 05:55N 54°11' E 001°22'2 3.8
2020-Jan-23 05:21N 54°13' E 001°23'52 4.9
2020-Jan-22 18:47N 53°24' E 001°51'36 1.6
2020-Jan-21 20:31N 53°17' E 002°50'28 3.7
2020-Jan-21 12:58N 52°50' E 002°39'13 9.0
2020-Jan-21 11:30N 52°38' E 002°31'2 2.1
2020-Jan-21 10:31N 52°36' E 002°28'17 5.5
2020-Jan-21 07:31N 52°21' E 002°40'0 0.9
2020-Jan-21 07:01N 52°22' E 002°40'4 1.3
2020-Jan-21 04:01N 52°25' E 002°42'2 4.6
2020-Jan-21 03:30N 52°25' E 002°46'2 3.2
2020-Jan-21 03:00N 52°25' E 002°48'11 7.2
2020-Jan-21 01:29N 52°33' E 003°01'5 9.2
2020-Jan-21 00:59N 52°36' E 003°06'29 7.4
2020-Jan-20 21:00N 52°13' E 003°35'18 7.3
2020-Jan-20 18:31N 52°08' E 004°04'8 5.0
2020-Jan-20 16:59N 52°06' E 004°16'0 0.0
2020-Jan-20 14:56N 52°06' E 004°16'0 0.0
2020-Jan-20 13:29N 52°06' E 004°16'0 0.0
2020-Jan-20 11:56N 52°06' E 004°16'0 0.0
2020-Jan-20 10:59N 52°06' E 004°16'0 0.0
2020-Jan-20 09:29N 52°06' E 004°16'0 0.0
2020-Jan-20 08:59N 52°06' E 004°16'0 0.0
2020-Jan-20 06:59N 52°06' E 004°16'0 0.0
2020-Jan-20 05:59N 52°06' E 004°16'0 0.0
2020-Jan-20 05:29N 52°06' E 004°16'0 0.0
2020-Jan-20 04:59N 52°06' E 004°16'0 0.0
2020-Jan-20 03:29N 52°06' E 004°16'0 0.0
2020-Jan-20 02:29N 52°06' E 004°16'0 0.0
2020-Jan-20 01:29N 52°06' E 004°16'0 0.0
2020-Jan-20 00:59N 52°06' E 004°16'0 0.0
2020-Jan-19 23:29N 52°06' E 004°16'0 0.0
2020-Jan-19 20:56N 52°06' E 004°16'0 0.0
2020-Jan-19 18:56N 52°06' E 004°16'0 0.0
2020-Jan-19 18:29N 52°06' E 004°16'0 0.0
2020-Jan-19 16:26N 52°06' E 004°16'8 2.4
2020-Jan-19 13:00N 52°14' E 004°19'8 3.9
2020-Jan-19 11:00N 52°21' E 004°24'5 9.9
2020-Jan-19 10:30N 52°24' E 004°17'5 9.5
2020-Jan-19 10:00N 52°28' E 004°12'14 9.2
2020-Jan-19 08:31N 52°40' E 004°03'3 1.4
2020-Jan-19 06:30N 52°43' E 004°01'5 2.5
2020-Jan-19 04:30N 52°40' E 004°08'3 2.5
2020-Jan-19 03:30N 52°39' E 004°12'  

Dump ship's entire track history